Time;durP1;ratioP1;P1;durP2;ratioP2;P2;SDS_P1;SDS_P2;PMS_P1;PMS_P2;Temp;Humidity;BMP_temperature;BMP_pressure;BME280_temperature;BME280_humidity;BME280_pressure;Samples;Min_cycle;Max_cycle;Signal;HPM_P1;HPM_P2
2023/12/30 00:02:46;;;;;;;7.28;5.90;;;;;;;;;;10285706;28;20068;-52
2023/12/30 00:07:44;;;;;;;8.32;6.50;;;;;;;;;;10284018;28;20069;-53
2023/12/30 00:12:44;;;;;;;7.45;5.88;;;;;;;;;;10290011;28;20083;-53
2023/12/30 00:17:43;;;;;;;10.10;6.85;;;;;;;;;;10287995;28;20068;-54
2023/12/30 00:22:41;;;;;;;7.20;6.20;;;;;;;;;;10292003;28;20075;-53
2023/12/30 00:27:40;;;;;;;6.55;5.90;;;;;;;;;;10288402;28;20075;-53
2023/12/30 00:32:40;;;;;;;6.95;6.03;;;;;;;;;;10306343;28;20084;-52
2023/12/30 00:37:38;;;;;;;11.15;6.60;;;;;;;;;;10296249;28;20080;-56
2023/12/30 00:42:36;;;;;;;8.68;6.55;;;;;;;;;;10297716;28;20071;-49
2023/12/30 00:47:35;;;;;;;7.93;6.97;;;;;;;;;;10289837;28;20067;-52
2023/12/30 00:52:35;;;;;;;10.02;5.97;;;;;;;;;;10291563;28;20068;-52
2023/12/30 00:57:33;;;;;;;8.88;7.03;;;;;;;;;;10293465;28;20554;-52
2023/12/30 01:02:31;;;;;;;7.65;6.82;;;;;;;;;;10284316;28;20080;-52
2023/12/30 01:07:29;;;;;;;8.40;6.50;;;;;;;;;;10286138;28;20068;-53
2023/12/30 01:12:29;;;;;;;7.90;6.95;;;;;;;;;;10285362;28;20076;-51
2023/12/30 01:17:27;;;;;;;8.23;6.18;;;;;;;;;;10281777;28;20065;-53
2023/12/30 01:22:26;;;;;;;7.82;6.35;;;;;;;;;;10285686;28;20545;-55
2023/12/30 01:27:24;;;;;;;6.43;5.72;;;;;;;;;;10285524;28;20065;-54
2023/12/30 01:32:24;;;;;;;9.18;5.88;;;;;;;;;;10291050;28;20140;-54
2023/12/30 01:37:22;;;;;;;6.88;5.53;;;;;;;;;;10284444;28;20071;-55
2023/12/30 01:42:20;;;;;;;6.95;6.28;;;;;;;;;;10295627;28;20060;-54
2023/12/30 01:47:19;;;;;;;8.02;6.40;;;;;;;;;;10282550;28;20482;-53
2023/12/30 01:52:19;;;;;;;8.27;6.20;;;;;;;;;;10286627;28;20471;-54
2023/12/30 01:57:17;;;;;;;8.13;5.38;;;;;;;;;;10285309;28;20068;-54
2023/12/30 02:02:15;;;;;;;7.43;6.10;;;;;;;;;;10284441;28;20072;-54
2023/12/30 02:07:14;;;;;;;9.52;6.22;;;;;;;;;;10288839;28;20072;-55
2023/12/30 02:12:13;;;;;;;10.73;6.25;;;;;;;;;;10286184;28;20079;-54
2023/12/30 02:17:12;;;;;;;8.23;6.70;;;;;;;;;;10290044;28;20052;-53
2023/12/30 02:22:10;;;;;;;7.60;6.13;;;;;;;;;;10284252;28;20053;-52
2023/12/30 02:27:10;;;;;;;6.70;5.43;;;;;;;;;;10287125;28;20083;-54
2023/12/30 02:32:08;;;;;;;11.60;6.45;;;;;;;;;;10287156;28;20096;-54
2023/12/30 02:37:07;;;;;;;7.03;6.32;;;;;;;;;;10283211;28;20065;-52
2023/12/30 02:42:06;;;;;;;8.40;6.18;;;;;;;;;;10285860;28;20061;-54
2023/12/30 02:47:06;;;;;;;6.00;5.38;;;;;;;;;;10290431;28;20500;-53
2023/12/30 02:52:04;;;;;;;8.40;6.28;;;;;;;;;;10284148;28;20091;-51
2023/12/30 02:57:03;;;;;;;7.85;6.75;;;;;;;;;;10285639;28;20068;-53
2023/12/30 03:02:01;;;;;;;8.65;5.72;;;;;;;;;;10284714;28;20071;-52
2023/12/30 03:07:02;;;;;;;6.00;5.40;;;;;;;;;;10286045;28;20065;-52
2023/12/30 03:12:02;;;;;;;6.90;5.63;;;;;;;;;;10283917;28;20064;-52
2023/12/30 03:17:00;;;;;;;6.53;5.82;;;;;;;;;;10283307;28;20068;-51
2023/12/30 03:21:58;;;;;;;7.65;5.72;;;;;;;;;;10281337;28;20079;-52
2023/12/30 03:26:58;;;;;;;7.28;5.45;;;;;;;;;;10286042;28;20075;-52
2023/12/30 03:31:57;;;;;;;6.25;5.30;;;;;;;;;;10283746;28;20076;-50
2023/12/30 03:36:55;;;;;;;7.32;5.55;;;;;;;;;;10284676;28;20518;-50
2023/12/30 03:41:53;;;;;;;5.97;5.35;;;;;;;;;;10284423;28;20635;-51
2023/12/30 03:46:53;;;;;;;15.00;12.13;;;;;;;;;;10288309;28;20442;-51
2023/12/30 03:51:51;;;;;;;7.10;5.93;;;;;;;;;;10293681;28;20534;-49
2023/12/30 03:56:49;;;;;;;7.10;5.60;;;;;;;;;;10296101;28;20081;-52
2023/12/30 04:01:49;;;;;;;7.68;5.80;;;;;;;;;;10294405;28;20156;-53
2023/12/30 04:06:49;;;;;;;7.70;6.25;;;;;;;;;;10293099;28;20451;-53
2023/12/30 04:11:47;;;;;;;7.90;6.03;;;;;;;;;;10287722;28;20114;-53
2023/12/30 04:16:46;;;;;;;6.88;6.18;;;;;;;;;;10288186;28;20076;-54
2023/12/30 04:21:44;;;;;;;7.45;5.05;;;;;;;;;;10290396;28;20068;-53
2023/12/30 04:26:44;;;;;;;8.23;5.88;;;;;;;;;;10292416;28;20056;-53
2023/12/30 04:31:42;;;;;;;5.65;5.05;;;;;;;;;;10293087;28;20080;-52
2023/12/30 04:36:41;;;;;;;7.90;6.40;;;;;;;;;;10287242;28;20072;-52
2023/12/30 04:41:39;;;;;;;8.00;6.03;;;;;;;;;;10284833;28;20083;-52
2023/12/30 04:46:39;;;;;;;5.93;5.32;;;;;;;;;;10288280;28;20064;-54
2023/12/30 04:51:37;;;;;;;8.75;7.70;;;;;;;;;;10286804;28;20087;-52
2023/12/30 04:56:36;;;;;;;6.95;5.90;;;;;;;;;;10286302;28;20079;-53
2023/12/30 05:01:34;;;;;;;6.80;6.07;;;;;;;;;;10291293;28;20053;-52
2023/12/30 05:06:34;;;;;;;8.38;5.88;;;;;;;;;;10290270;28;20076;-50
2023/12/30 05:11:32;;;;;;;6.95;6.20;;;;;;;;;;10288628;28;20064;-54
2023/12/30 05:16:31;;;;;;;10.02;9.02;;;;;;;;;;10288645;28;20522;-54
2023/12/30 05:21:29;;;;;;;9.88;6.72;;;;;;;;;;10288916;28;20065;-53
2023/12/30 05:26:28;;;;;;;9.63;7.15;;;;;;;;;;10287778;28;20060;-54
2023/12/30 05:31:27;;;;;;;7.60;6.80;;;;;;;;;;10288476;28;20079;-52
2023/12/30 05:36:25;;;;;;;9.02;6.60;;;;;;;;;;10285689;28;20087;-52
2023/12/30 05:41:23;;;;;;;12.02;6.25;;;;;;;;;;10289159;28;20044;-50
2023/12/30 05:46:23;;;;;;;7.00;6.13;;;;;;;;;;10286756;28;20068;-53
2023/12/30 05:51:21;;;;;;;9.18;6.55;;;;;;;;;;10285681;28;20091;-54
2023/12/30 05:56:23;;;;;;;9.13;6.45;;;;;;;;;;10281958;28;20080;-53
2023/12/30 06:01:22;;;;;;;8.18;6.05;;;;;;;;;;10284213;28;20076;-52
2023/12/30 06:06:21;;;;;;;8.02;6.43;;;;;;;;;;10287029;28;20071;-54
2023/12/30 06:11:19;;;;;;;10.02;7.55;;;;;;;;;;10288264;28;20064;-52
2023/12/30 06:16:17;;;;;;;8.32;7.53;;;;;;;;;;10285826;28;20079;-51
2023/12/30 06:21:17;;;;;;;8.85;6.15;;;;;;;;;;10286937;28;20122;-54
2023/12/30 06:26:15;;;;;;;7.57;6.55;;;;;;;;;;10284451;28;20112;-53
2023/12/30 06:31:13;;;;;;;7.47;6.35;;;;;;;;;;10287190;28;20071;-52
2023/12/30 06:36:19;;;;;;;8.60;6.78;;;;;;;;;;10286935;28;20108;-54
2023/12/30 06:41:19;;;;;;;8.02;6.75;;;;;;;;;;10281450;28;20079;-53
2023/12/30 06:46:19;;;;;;;9.18;7.53;;;;;;;;;;10287049;28;20104;-52
2023/12/30 06:51:17;;;;;;;10.35;8.00;;;;;;;;;;10282404;28;20076;-51
2023/12/30 06:56:15;;;;;;;10.13;7.97;;;;;;;;;;10284099;28;20079;-52
2023/12/30 07:01:15;;;;;;;10.10;7.25;;;;;;;;;;10279611;28;20064;-53
2023/12/30 07:06:13;;;;;;;14.55;8.95;;;;;;;;;;10284981;28;20068;-54
2023/12/30 07:11:11;;;;;;;12.95;8.30;;;;;;;;;;10285140;28;20476;-52
2023/12/30 07:16:10;;;;;;;10.40;7.80;;;;;;;;;;10286844;28;20095;-53
2023/12/30 07:21:10;;;;;;;9.82;7.00;;;;;;;;;;10290699;28;20069;-53
2023/12/30 07:26:09;;;;;;;9.85;7.38;;;;;;;;;;10292892;28;20079;-51
2023/12/30 07:31:07;;;;;;;12.23;7.97;;;;;;;;;;10292961;28;20072;-51
2023/12/30 07:36:07;;;;;;;12.32;9.18;;;;;;;;;;10294222;28;20492;-51
2023/12/30 07:41:07;;;;;;;13.35;8.65;;;;;;;;;;10295782;28;20450;-49
2023/12/30 07:46:05;;;;;;;17.90;13.32;;;;;;;;;;10295898;28;20502;-52
2023/12/30 07:51:04;;;;;;;10.43;8.50;;;;;;;;;;10286587;28;20068;-53
2023/12/30 07:56:02;;;;;;;9.70;7.97;;;;;;;;;;10293224;28;20087;-52
2023/12/30 08:01:02;;;;;;;13.80;11.40;;;;;;;;;;10289941;28;20072;-54
2023/12/30 08:06:00;;;;;;;11.23;8.82;;;;;;;;;;10285548;28;20061;-52
2023/12/30 08:10:59;;;;;;;10.98;8.32;;;;;;;;;;10286625;28;20111;-51
2023/12/30 08:15:58;;;;;;;19.02;11.00;;;;;;;;;;10290073;28;20072;-49
2023/12/30 08:20:57;;;;;;;14.68;11.80;;;;;;;;;;10291227;28;20079;-51
2023/12/30 08:25:56;;;;;;;12.02;9.00;;;;;;;;;;10289156;28;20076;-52
2023/12/30 08:30:54;;;;;;;10.70;8.35;;;;;;;;;;10290543;28;20071;-52
2023/12/30 08:35:53;;;;;;;14.77;11.18;;;;;;;;;;10291817;28;20084;-52
2023/12/30 08:40:52;;;;;;;11.07;9.35;;;;;;;;;;10289296;28;20060;-54
2023/12/30 08:45:50;;;;;;;8.13;6.65;;;;;;;;;;10290060;28;20084;-54
2023/12/30 08:50:49;;;;;;;9.95;7.25;;;;;;;;;;10286051;28;20177;-52
2023/12/30 08:55:48;;;;;;;7.50;6.38;;;;;;;;;;10284263;28;20076;-55
2023/12/30 09:00:47;;;;;;;7.40;6.35;;;;;;;;;;10285313;28;20499;-48
2023/12/30 09:05:45;;;;;;;37.42;21.33;;;;;;;;;;10287615;28;20334;-51
2023/12/30 09:10:44;;;;;;;13.23;9.10;;;;;;;;;;10285228;28;20079;-50
2023/12/30 09:15:42;;;;;;;12.77;8.07;;;;;;;;;;10282799;28;20102;-51
2023/12/30 09:20:42;;;;;;;7.68;6.55;;;;;;;;;;10285086;28;20087;-51
2023/12/30 09:25:40;;;;;;;14.55;11.18;;;;;;;;;;10284706;28;20443;-52
2023/12/30 09:30:39;;;;;;;12.85;8.48;;;;;;;;;;10288119;28;20474;-53
2023/12/30 09:35:37;;;;;;;9.18;7.43;;;;;;;;;;10283400;28;20522;-51
2023/12/30 09:40:36;;;;;;;11.18;8.10;;;;;;;;;;10283466;28;20064;-54
2023/12/30 09:45:38;;;;;;;11.55;7.72;;;;;;;;;;10284440;28;20060;-53
2023/12/30 09:50:36;;;;;;;9.02;7.28;;;;;;;;;;10284291;28;20079;-52
2023/12/30 09:55:34;;;;;;;10.63;7.65;;;;;;;;;;10287469;28;20080;-52
2023/12/30 10:00:35;;;;;;;13.18;7.13;;;;;;;;;;10287369;28;20071;-52
2023/12/30 10:05:33;;;;;;;11.00;8.85;;;;;;;;;;10284306;28;20482;-50
2023/12/30 10:10:42;;;;;;;15.05;10.30;;;;;;;;;;10287470;28;20083;-51
2023/12/30 10:15:42;;;;;;;13.43;9.95;;;;;;;;;;10286436;28;20080;-52
2023/12/30 10:20:41;;;;;;;15.20;11.25;;;;;;;;;;10286220;28;20592;-54
2023/12/30 10:25:41;;;;;;;12.80;9.13;;;;;;;;;;10282055;28;20607;-55
2023/12/30 10:30:39;;;;;;;16.52;11.90;;;;;;;;;;10282912;28;20462;-53
2023/12/30 10:35:41;;;;;;;16.02;11.07;;;;;;;;;;10285645;28;20084;-49
2023/12/30 10:40:39;;;;;;;15.85;10.38;;;;;;;;;;10282341;28;20069;-56
2023/12/30 10:45:38;;;;;;;10.90;8.05;;;;;;;;;;10288978;28;20080;-53
2023/12/30 10:50:37;;;;;;;10.23;8.90;;;;;;;;;;10289689;28;20093;-53
2023/12/30 10:55:41;;;;;;;11.50;7.30;;;;;;;;;;10282650;28;20080;-48
2023/12/30 11:00:42;;;;;;;13.10;9.85;;;;;;;;;;10288603;28;20458;-51
2023/12/30 11:05:44;;;;;;;16.90;10.85;;;;;;;;;;10280200;28;20064;-50
2023/12/30 11:10:44;;;;;;;10.00;8.27;;;;;;;;;;10279040;28;20060;-51
2023/12/30 11:15:43;;;;;;;14.02;10.32;;;;;;;;;;10286104;28;20071;-54
2023/12/30 11:20:44;;;;;;;13.20;9.82;;;;;;;;;;10287780;28;20064;-51
2023/12/30 11:25:46;;;;;;;13.57;9.70;;;;;;;;;;10282648;28;20083;-53
2023/12/30 11:30:45;;;;;;;11.60;8.35;;;;;;;;;;10285801;28;20079;-51
2023/12/30 11:35:44;;;;;;;11.80;7.85;;;;;;;;;;10290166;28;20084;-54
2023/12/30 11:40:48;;;;;;;9.52;7.18;;;;;;;;;;10284046;28;20065;-50
2023/12/30 11:45:46;;;;;;;13.07;9.73;;;;;;;;;;10277941;28;20076;-54
2023/12/30 11:50:45;;;;;;;12.82;10.40;;;;;;;;;;10285088;28;20061;-49
2023/12/30 11:55:44;;;;;;;11.35;7.45;;;;;;;;;;10283224;28;20073;-47
2023/12/30 12:00:43;;;;;;;7.70;6.65;;;;;;;;;;10284220;28;20087;-51
2023/12/30 12:05:41;;;;;;;9.77;7.35;;;;;;;;;;10283125;28;20532;-49
2023/12/30 12:10:40;;;;;;;9.48;6.85;;;;;;;;;;10290163;28;20107;-51
2023/12/30 12:15:42;;;;;;;14.75;11.23;;;;;;;;;;10292937;28;20076;-54
2023/12/30 12:20:42;;;;;;;17.55;10.35;;;;;;;;;;10289669;28;20045;-53
2023/12/30 12:25:42;;;;;;;31.27;20.52;;;;;;;;;;10292495;28;20077;-51
2023/12/30 12:30:42;;;;;;;16.50;10.75;;;;;;;;;;10291001;28;20073;-47
2023/12/30 12:35:40;;;;;;;10.43;7.15;;;;;;;;;;10292180;28;20528;-50
2023/12/30 12:40:39;;;;;;;13.73;7.82;;;;;;;;;;10284621;28;20092;-52
2023/12/30 12:45:37;;;;;;;16.73;8.63;;;;;;;;;;10291733;28;20600;-47
2023/12/30 12:50:37;;;;;;;12.15;7.82;;;;;;;;;;10287260;28;20060;-53
2023/12/30 12:55:36;;;;;;;8.27;6.45;;;;;;;;;;10289054;28;20075;-52
2023/12/30 13:00:34;;;;;;;12.75;8.50;;;;;;;;;;10290326;28;20077;-55
2023/12/30 13:05:33;;;;;;;14.98;13.20;;;;;;;;;;10285967;28;20083;-53
2023/12/30 13:10:41;;;;;;;12.95;9.32;;;;;;;;;;10294622;28;20495;-54
2023/12/30 13:15:39;;;;;;;9.57;7.40;;;;;;;;;;10290576;28;20521;-54
2023/12/30 13:20:38;;;;;;;9.93;7.18;;;;;;;;;;10287946;28;20072;-52
2023/12/30 13:25:41;;;;;;;13.27;7.70;;;;;;;;;;10290434;28;20077;-54
2023/12/30 13:30:40;;;;;;;8.73;7.03;;;;;;;;;;10293150;28;20521;-51
2023/12/30 13:35:40;;;;;;;14.07;9.55;;;;;;;;;;10287193;28;20080;-51
2023/12/30 13:40:40;;;;;;;14.38;10.73;;;;;;;;;;10285211;28;20075;-51
2023/12/30 13:45:43;;;;;;;18.83;12.32;;;;;;;;;;10283015;28;20076;-52
2023/12/30 13:50:49;;;;;;;18.13;12.07;;;;;;;;;;10289453;28;20439;-52
2023/12/30 13:55:53;;;;;;;16.33;10.60;;;;;;;;;;10288064;28;20095;-47
2023/12/30 14:00:55;;;;;;;12.82;7.60;;;;;;;;;;10285551;28;20642;-50
2023/12/30 14:05:54;;;;;;;15.18;10.82;;;;;;;;;;10285514;28;20075;-51
2023/12/30 14:10:54;;;;;;;17.10;11.30;;;;;;;;;;10286032;28;20083;-53
2023/12/30 14:15:53;;;;;;;12.93;8.45;;;;;;;;;;10274333;28;20546;-52
2023/12/30 14:20:52;;;;;;;47.45;41.22;;;;;;;;;;10282044;28;20072;-52
2023/12/30 14:25:50;;;;;;;22.02;19.40;;;;;;;;;;10283235;28;20083;-49
2023/12/30 14:30:48;;;;;;;18.33;15.50;;;;;;;;;;10280078;28;20103;-52
2023/12/30 14:35:48;;;;;;;25.80;19.73;;;;;;;;;;10279550;28;20083;-51
2023/12/30 14:40:46;;;;;;;115.75;88.47;;;;;;;;;;10278408;28;20067;-51
2023/12/30 14:45:45;;;;;;;110.88;79.90;;;;;;;;;;10276208;28;20076;-52
2023/12/30 14:50:43;;;;;;;37.65;31.45;;;;;;;;;;10273879;28;20072;-51
2023/12/30 14:55:42;;;;;;;42.53;37.58;;;;;;;;;;10280841;28;20084;-48
2023/12/30 15:00:41;;;;;;;58.50;43.70;;;;;;;;;;10277443;28;20079;-52
2023/12/30 15:05:39;;;;;;;54.83;48.88;;;;;;;;;;10282774;28;20072;-53
2023/12/30 15:10:37;;;;;;;63.15;51.83;;;;;;;;;;10289753;28;20060;-53
2023/12/30 15:15:38;;;;;;;62.67;45.97;;;;;;;;;;10285875;28;20534;-51
2023/12/30 15:20:36;;;;;;;27.55;22.23;;;;;;;;;;10285448;28;20835;-53
2023/12/30 15:25:36;;;;;;;42.80;32.10;;;;;;;;;;10288910;28;20079;-52
2023/12/30 15:30:37;;;;;;;34.08;26.70;;;;;;;;;;10285871;28;20080;-54
2023/12/30 15:35:37;;;;;;;29.58;23.50;;;;;;;;;;10288611;28;20084;-55
2023/12/30 15:40:40;;;;;;;84.82;59.25;;;;;;;;;;10290522;28;20087;-53
2023/12/30 15:45:40;;;;;;;39.22;32.20;;;;;;;;;;10289771;28;20081;-50
2023/12/30 15:50:38;;;;;;;38.45;34.30;;;;;;;;;;10288355;28;20064;-48
2023/12/30 15:55:36;;;;;;;53.53;45.95;;;;;;;;;;10290921;28;20072;-51
2023/12/30 16:00:34;;;;;;;56.28;43.40;;;;;;;;;;10293796;28;20465;-52
2023/12/30 16:05:34;;;;;;;44.83;33.35;;;;;;;;;;10295414;28;20072;-50
2023/12/30 16:10:32;;;;;;;53.65;43.13;;;;;;;;;;10295395;28;20064;-52
2023/12/30 16:15:31;;;;;;;27.38;23.67;;;;;;;;;;10286255;28;20061;-54
2023/12/30 16:20:33;;;;;;;23.25;18.70;;;;;;;;;;10291244;28;20076;-53
2023/12/30 16:25:32;;;;;;;20.92;15.05;;;;;;;;;;10292459;28;20099;-52
2023/12/30 16:30:30;;;;;;;26.13;20.10;;;;;;;;;;10296832;28;20131;-52
2023/12/30 16:35:28;;;;;;;27.30;20.05;;;;;;;;;;10290445;28;20091;-55
2023/12/30 16:40:30;;;;;;;23.73;18.02;;;;;;;;;;10286910;28;20072;-55
2023/12/30 16:45:28;;;;;;;23.42;16.67;;;;;;;;;;10292302;28;20095;-52
2023/12/30 16:50:27;;;;;;;22.60;15.70;;;;;;;;;;10291122;28;20072;-53
2023/12/30 16:55:25;;;;;;;16.05;13.85;;;;;;;;;;10289215;28;20084;-55
2023/12/30 17:00:25;;;;;;;16.45;12.80;;;;;;;;;;10289910;28;20080;-48
2023/12/30 17:05:23;;;;;;;19.50;13.82;;;;;;;;;;10289489;28;20072;-53
2023/12/30 17:10:21;;;;;;;17.75;13.23;;;;;;;;;;10287292;28;20072;-50
2023/12/30 17:15:19;;;;;;;18.48;14.48;;;;;;;;;;10292773;28;20075;-50
2023/12/30 17:20:19;;;;;;;22.13;14.85;;;;;;;;;;10291868;28;20507;-47
2023/12/30 17:25:17;;;;;;;18.50;14.13;;;;;;;;;;10290070;28;20085;-53
2023/12/30 17:30:16;;;;;;;13.93;12.30;;;;;;;;;;10286458;28;20065;-51
2023/12/30 17:35:14;;;;;;;17.70;12.65;;;;;;;;;;10299574;28;20459;-51
2023/12/30 17:40:17;;;;;;;14.57;12.82;;;;;;;;;;10309780;28;20095;-54
2023/12/30 17:45:15;;;;;;;13.95;10.90;;;;;;;;;;10316099;28;20076;-50
2023/12/30 17:50:14;;;;;;;17.48;13.00;;;;;;;;;;10285251;28;20075;-53
2023/12/30 17:55:12;;;;;;;11.98;9.13;;;;;;;;;;10290475;28;20078;-52
2023/12/30 18:00:13;;;;;;;17.15;13.57;;;;;;;;;;10289427;28;20087;-52
2023/12/30 18:05:11;;;;;;;13.38;10.43;;;;;;;;;;10286628;28;20163;-53
2023/12/30 18:10:10;;;;;;;26.95;19.73;;;;;;;;;;10284181;28;20064;-53
2023/12/30 18:15:09;;;;;;;18.45;15.13;;;;;;;;;;10285388;28;20064;-52
2023/12/30 18:20:10;;;;;;;15.55;13.95;;;;;;;;;;10288030;28;20093;-52
2023/12/30 18:25:09;;;;;;;12.77;10.48;;;;;;;;;;10285266;28;20477;-54
2023/12/30 18:30:08;;;;;;;13.98;11.02;;;;;;;;;;10284507;28;20091;-52
2023/12/30 18:35:06;;;;;;;19.80;15.95;;;;;;;;;;10285344;28;20094;-53
2023/12/30 18:40:10;;;;;;;9.18;7.32;;;;;;;;;;10281874;28;20076;-54
2023/12/30 18:45:09;;;;;;;11.55;8.57;;;;;;;;;;10286751;28;20088;-48
2023/12/30 18:50:07;;;;;;;15.95;9.35;;;;;;;;;;10281869;28;20064;-55
2023/12/30 18:55:08;;;;;;;8.38;7.47;;;;;;;;;;10285250;28;20076;-54
2023/12/30 19:00:07;;;;;;;13.18;10.55;;;;;;;;;;10284261;28;20503;-47
2023/12/30 19:05:06;;;;;;;12.93;9.02;;;;;;;;;;10287973;28;20542;-50
2023/12/30 19:10:05;;;;;;;9.35;8.45;;;;;;;;;;10284034;28;20068;-51
2023/12/30 19:15:06;;;;;;;14.75;9.82;;;;;;;;;;10281202;28;20080;-50
2023/12/30 19:20:05;;;;;;;11.30;8.82;;;;;;;;;;10281533;28;20502;-51
2023/12/30 19:25:04;;;;;;;14.48;12.02;;;;;;;;;;10278587;28;20068;-49
2023/12/30 19:30:02;;;;;;;10.25;8.55;;;;;;;;;;10284245;28;20064;-50
2023/12/30 19:35:02;;;;;;;9.88;8.85;;;;;;;;;;10280466;28;20072;-52
2023/12/30 19:40:01;;;;;;;11.55;10.35;;;;;;;;;;10286103;28;20080;-50
2023/12/30 19:45:01;;;;;;;9.23;7.70;;;;;;;;;;10284139;28;20075;-54
2023/12/30 19:49:59;;;;;;;9.50;8.10;;;;;;;;;;10287131;28;20056;-53
2023/12/30 19:55:00;;;;;;;11.60;8.07;;;;;;;;;;10285063;28;20079;-52
2023/12/30 19:59:58;;;;;;;11.45;9.27;;;;;;;;;;10286392;28;20084;-55
2023/12/30 20:04:56;;;;;;;13.05;9.25;;;;;;;;;;10281768;28;20071;-55
2023/12/30 20:10:00;;;;;;;10.18;8.82;;;;;;;;;;10282400;28;20064;-54
2023/12/30 20:14:58;;;;;;;8.52;7.72;;;;;;;;;;10280134;28;20607;-53
2023/12/30 20:19:56;;;;;;;11.57;8.82;;;;;;;;;;10282294;28;20520;-55
2023/12/30 20:25:00;;;;;;;11.48;9.10;;;;;;;;;;10282012;28;20069;-54
2023/12/30 20:29:58;;;;;;;13.18;9.05;;;;;;;;;;10289425;28;20076;-53
2023/12/30 20:34:56;;;;;;;14.45;9.40;;;;;;;;;;10292065;28;20088;-55
2023/12/30 20:39:54;;;;;;;11.15;9.30;;;;;;;;;;10287787;28;20112;-54
2023/12/30 20:44:54;;;;;;;15.25;10.00;;;;;;;;;;10297526;28;20474;-52
2023/12/30 20:49:52;;;;;;;15.65;12.00;;;;;;;;;;10286570;28;20065;-54
2023/12/30 20:54:51;;;;;;;10.07;7.65;;;;;;;;;;10292300;28;20076;-54
2023/12/30 20:59:49;;;;;;;10.88;9.20;;;;;;;;;;10289909;28;20490;-52
2023/12/30 21:04:51;;;;;;;14.65;10.82;;;;;;;;;;10289610;28;20068;-53
2023/12/30 21:09:49;;;;;;;10.65;9.45;;;;;;;;;;10289411;28;20072;-55
2023/12/30 21:14:47;;;;;;;13.82;9.55;;;;;;;;;;10290486;28;20076;-55
2023/12/30 21:19:48;;;;;;;10.25;9.25;;;;;;;;;;10286790;28;20087;-54
2023/12/30 21:24:47;;;;;;;10.68;9.05;;;;;;;;;;10287648;28;20072;-55
2023/12/30 21:29:46;;;;;;;13.18;10.10;;;;;;;;;;10283694;28;20080;-53
2023/12/30 21:34:44;;;;;;;13.68;10.55;;;;;;;;;;10292695;28;20076;-54
2023/12/30 21:39:43;;;;;;;11.55;10.15;;;;;;;;;;10286573;28;20072;-51
2023/12/30 21:44:42;;;;;;;11.23;9.38;;;;;;;;;;10290811;28;20490;-55
2023/12/30 21:49:42;;;;;;;20.15;14.48;;;;;;;;;;10288999;28;20048;-54
2023/12/30 21:54:40;;;;;;;12.32;10.20;;;;;;;;;;10285291;28;20079;-54
2023/12/30 21:59:38;;;;;;;12.18;9.27;;;;;;;;;;10288585;28;20498;-54
2023/12/30 22:04:38;;;;;;;13.50;9.90;;;;;;;;;;10289615;28;20719;-53
2023/12/30 22:09:36;;;;;;;11.32;9.13;;;;;;;;;;10285747;28;20075;-54
2023/12/30 22:14:34;;;;;;;13.63;9.93;;;;;;;;;;10286544;28;20139;-54
2023/12/30 22:19:33;;;;;;;10.60;9.25;;;;;;;;;;10288180;28;20522;-54
2023/12/30 22:24:32;;;;;;;10.80;9.10;;;;;;;;;;10284229;28;20080;-54
2023/12/30 22:29:30;;;;;;;11.07;9.43;;;;;;;;;;10282851;28;20494;-53
2023/12/30 22:34:28;;;;;;;10.93;9.15;;;;;;;;;;10286082;28;20087;-55
2023/12/30 22:39:27;;;;;;;12.82;11.48;;;;;;;;;;10284263;28;20069;-54
2023/12/30 22:44:26;;;;;;;12.38;9.82;;;;;;;;;;10283340;28;20507;-52
2023/12/30 22:49:25;;;;;;;13.88;11.88;;;;;;;;;;10284886;28;20518;-54
2023/12/30 22:54:23;;;;;;;18.10;13.00;;;;;;;;;;10284164;28;20583;-55
2023/12/30 22:59:21;;;;;;;15.32;12.23;;;;;;;;;;10287360;28;20646;-54
2023/12/30 23:04:22;;;;;;;14.60;11.38;;;;;;;;;;10287245;28;20648;-55
2023/12/30 23:09:20;;;;;;;16.20;12.05;;;;;;;;;;10286822;28;20064;-55
2023/12/30 23:14:18;;;;;;;16.17;12.68;;;;;;;;;;10288953;28;20072;-54
2023/12/30 23:19:16;;;;;;;12.05;10.55;;;;;;;;;;10286493;28;20540;-54
2023/12/30 23:24:16;;;;;;;11.32;10.13;;;;;;;;;;10288477;28;20071;-55
2023/12/30 23:29:14;;;;;;;12.40;10.48;;;;;;;;;;10289144;28;20072;-55
2023/12/30 23:34:14;;;;;;;13.23;10.00;;;;;;;;;;10286703;28;20088;-54
2023/12/30 23:39:12;;;;;;;12.63;10.30;;;;;;;;;;10286967;28;20072;-54
2023/12/30 23:44:12;;;;;;;11.38;9.65;;;;;;;;;;10279410;28;20630;-53
2023/12/30 23:49:10;;;;;;;10.77;8.82;;;;;;;;;;10287295;28;20142;-54
2023/12/30 23:54:08;;;;;;;10.93;9.07;;;;;;;;;;10281828;28;20072;-49
2023/12/30 23:59:06;;;;;;;8.13;7.13;;;;;;;;;;10283439;28;20085;-53
